createdAt,value
2019-04-20T00:01:48.273Z,5.20
2019-04-20T00:04:21.191Z,5.80
2019-04-20T00:06:49.569Z,5.70
2019-04-20T00:09:22.558Z,5.93
2019-04-20T00:11:57.546Z,5.33
2019-04-20T00:14:20.898Z,5.50
2019-04-20T00:16:44.663Z,5.80
2019-04-20T00:19:15.333Z,5.90
2019-04-20T00:21:58.394Z,5.77
2019-04-20T00:24:30.312Z,5.80
2019-04-20T00:27:32.969Z,5.70
2019-04-20T00:29:46.623Z,6.27
2019-04-20T00:32:06.381Z,6.30
2019-04-20T00:34:30.038Z,6.13
2019-04-20T00:36:54.102Z,6.10
2019-04-20T00:39:21.975Z,6.07
2019-04-20T00:41:57.179Z,6.00
2019-04-20T00:44:25.653Z,5.57
2019-04-20T00:47:00.986Z,5.33
2019-04-20T00:49:36.305Z,5.77
2019-04-20T00:52:23.726Z,5.30
2019-04-20T00:54:24.312Z,5.33
2019-04-20T00:57:07.798Z,5.27
2019-04-20T00:59:35.351Z,5.53
2019-04-20T01:02:10.534Z,5.33
2019-04-20T01:04:40.735Z,5.60
2019-04-20T01:07:17.682Z,6.13
2019-04-20T01:09:54.408Z,6.50
2019-04-20T01:12:42.774Z,6.23
2019-04-20T01:15:23.029Z,6.27
2019-04-20T01:17:43.137Z,5.63
2019-04-20T01:20:11.740Z,5.60
2019-04-20T01:22:50.511Z,5.90
2019-04-20T01:25:17.220Z,5.70
2019-04-20T01:27:58.954Z,6.40
2019-04-20T01:30:18.650Z,5.70
2019-04-20T01:32:55.041Z,5.60
2019-04-20T01:35:25.185Z,5.60
2019-04-20T01:37:58.844Z,5.73
2019-04-20T01:40:09.928Z,5.47
2019-04-20T01:42:38.801Z,5.83
2019-04-20T01:45:14.608Z,6.20
2019-04-20T01:47:43.462Z,5.37
2019-04-20T01:50:13.432Z,6.07
2019-04-20T01:52:50.706Z,5.40
2019-04-20T01:55:50.704Z,4.90
2019-04-20T01:58:33.725Z,5.43
2019-04-20T02:01:04.468Z,5.40
2019-04-20T02:03:52.166Z,5.13
2019-04-20T02:06:21.674Z,5.37
2019-04-20T02:08:52.797Z,5.00
2019-04-20T02:11:25.101Z,4.70
2019-04-20T02:13:53.726Z,5.17
2019-04-20T02:16:27.315Z,5.10
2019-04-20T02:19:05.256Z,5.30
2019-04-20T02:21:34.185Z,6.13
2019-04-20T02:23:53.106Z,5.53
2019-04-20T02:26:16.078Z,5.10
2019-04-20T02:29:13.527Z,5.17
2019-04-20T02:34:23.893Z,5.77
2019-04-20T02:46:55.876Z,5.73
2019-04-20T02:51:53.385Z,6.27
2019-04-20T02:57:05.609Z,5.57
2019-04-20T03:01:45.554Z,6.50
2019-04-20T03:03:58.240Z,6.97
2019-04-20T03:06:38.837Z,6.30
2019-04-20T03:09:17.702Z,5.93
2019-04-20T03:11:55.361Z,6.20
2019-04-20T03:14:10.628Z,6.67
2019-04-20T03:16:41.064Z,6.80
2019-04-20T03:19:08.053Z,6.17
2019-04-20T03:21:45.425Z,6.43
2019-04-20T03:24:18.910Z,6.00
2019-04-20T03:26:54.494Z,6.13
2019-04-20T03:29:40.890Z,5.70
2019-04-20T03:32:57.930Z,6.40
2019-04-20T03:37:36.655Z,6.07
2019-04-20T03:39:56.766Z,5.50
2019-04-20T03:42:13.865Z,6.30
2019-04-20T03:44:48.912Z,6.53
2019-04-20T03:47:23.191Z,5.60
2019-04-20T03:50:07.232Z,5.50
2019-04-20T03:52:36.507Z,5.43
2019-04-20T03:55:16.134Z,5.77
2019-04-20T03:58:03.445Z,5.87
2019-04-20T04:00:59.488Z,6.17
2019-04-20T04:03:47.569Z,5.23
2019-04-20T04:06:07.687Z,5.10
2019-04-20T04:08:30.720Z,5.07
2019-04-20T04:11:12.347Z,5.70
2019-04-20T04:13:24.952Z,5.80
2019-04-20T04:15:59.428Z,5.53
2019-04-20T04:18:31.752Z,5.57
2019-04-20T04:21:03.005Z,5.93
2019-04-20T04:23:44.458Z,5.40
2019-04-20T04:26:12.653Z,5.87
2019-04-20T04:28:41.083Z,5.63
2019-04-20T04:31:12.035Z,5.73
2019-04-20T04:33:59.346Z,5.20
2019-04-20T04:36:10.543Z,5.77
2019-04-20T04:38:48.701Z,5.70
2019-04-20T04:41:19.885Z,5.97
2019-04-20T04:43:42.258Z,5.87
2019-04-20T04:45:53.421Z,6.10
2019-04-20T04:48:28.342Z,5.60
2019-04-20T04:50:57.390Z,6.10
2019-04-20T04:53:30.387Z,6.27
2019-04-20T04:55:56.527Z,5.80
2019-04-20T04:58:19.921Z,5.77
2019-04-20T05:00:49.126Z,6.30
2019-04-20T05:03:35.766Z,6.17
2019-04-20T05:06:14.780Z,6.00
2019-04-20T05:08:33.767Z,6.60
2019-04-20T05:10:56.191Z,5.93
2019-04-20T05:13:27.657Z,6.53
2019-04-20T05:16:07.590Z,5.40
2019-04-20T05:18:44.818Z,5.70
2019-04-20T05:21:30.186Z,5.90
2019-04-20T05:24:21.990Z,6.57
2019-04-20T05:27:01.510Z,6.60
2019-04-20T05:29:14.297Z,6.10
2019-04-20T05:31:46.206Z,6.53
2019-04-20T05:34:30.822Z,6.50
2019-04-20T05:36:58.124Z,6.50
2019-04-20T05:39:32.608Z,6.33
2019-04-20T05:42:02.978Z,6.13
2019-04-20T05:44:39.449Z,6.50
2019-04-20T05:47:06.866Z,6.23
2019-04-20T05:49:34.873Z,6.60
2019-04-20T05:52:22.543Z,6.87
2019-04-20T05:54:39.163Z,6.47
2019-04-20T05:57:17.220Z,7.10
2019-04-20T05:59:49.376Z,7.43
2019-04-20T06:02:11.143Z,7.27
2019-04-20T06:04:55.647Z,7.20
2019-04-20T06:07:08.261Z,7.10
2019-04-20T06:09:39.818Z,6.40
2019-04-20T06:12:27.202Z,6.30
2019-04-20T06:15:04.488Z,6.77
2019-04-20T06:17:53.123Z,6.70
2019-04-20T06:20:31.312Z,6.47
2019-04-20T06:23:08.220Z,7.00
2019-04-20T06:25:44.123Z,7.30
2019-04-20T06:28:04.785Z,8.30
2019-04-20T06:30:33.171Z,7.73
2019-04-20T06:34:27.576Z,7.27
2019-04-20T06:36:32.536Z,6.53
2019-04-20T06:39:13.347Z,6.93
2019-04-20T06:41:44.698Z,6.57
2019-04-20T06:44:00.648Z,6.57
2019-04-20T06:46:28.339Z,6.80
2019-04-20T06:49:05.678Z,7.10
2019-04-20T06:51:40.983Z,6.40
2019-04-20T06:54:03.147Z,6.80
2019-04-20T06:56:42.483Z,6.67
2019-04-20T06:59:24.220Z,15.07
2019-04-20T07:02:21.888Z,13.07
2019-04-20T07:04:57.617Z,7.10
2019-04-20T07:07:14.637Z,7.90
2019-04-20T07:09:52.967Z,8.75
2019-04-20T07:12:12.862Z,10.68
2019-04-20T07:14:32.881Z,6.80
2019-04-20T07:20:16.012Z,6.70
2019-04-20T07:23:18.943Z,6.60
2019-04-20T07:25:39.044Z,6.45
2019-04-20T07:28:05.844Z,6.83
2019-04-20T07:30:35.360Z,7.30
2019-04-20T07:33:09.070Z,6.75
2019-04-20T07:35:30.388Z,6.60
2019-04-20T07:40:28.779Z,6.35
2019-04-20T07:43:01.589Z,7.20
2019-04-20T07:45:45.044Z,6.45
2019-04-20T07:48:09.345Z,19.12
2019-04-20T07:50:26.175Z,13.32
2019-04-20T07:52:51.184Z,6.15
2019-04-20T07:55:40.548Z,6.03
2019-04-20T07:57:53.717Z,6.22
2019-04-20T08:00:44.916Z,6.42
2019-04-20T08:03:29.379Z,6.35
2019-04-20T08:05:53.800Z,5.50
2019-04-20T08:08:28.169Z,5.35
2019-04-20T08:10:58.672Z,5.15
2019-04-20T08:13:43.667Z,5.37
2019-04-20T08:18:35.134Z,4.90
2019-04-20T08:21:02.678Z,5.37
2019-04-20T08:23:30.003Z,5.08
2019-04-20T08:25:53.199Z,5.80
2019-04-20T08:28:29.181Z,5.58
2019-04-20T08:31:21.725Z,4.60
2019-04-20T08:34:07.806Z,5.55
2019-04-20T08:36:33.239Z,5.55
2019-04-20T08:41:29.845Z,5.58
2019-04-20T08:44:09.834Z,5.70
2019-04-20T08:46:33.259Z,5.50
2019-04-20T08:49:03.981Z,5.60
2019-04-20T08:51:52.468Z,5.47
2019-04-20T08:54:12.435Z,5.53
2019-04-20T08:56:31.649Z,5.72
2019-04-20T08:58:52.766Z,5.70
2019-04-20T09:01:28.243Z,5.58
2019-04-20T09:03:59.942Z,4.90
2019-04-20T09:06:37.602Z,5.62
2019-04-20T09:09:07.997Z,5.40
2019-04-20T09:11:42.319Z,5.70
2019-04-20T09:13:55.009Z,5.58
2019-04-20T09:16:26.964Z,5.33
2019-04-20T09:18:57.481Z,5.30
2019-04-20T09:21:30.768Z,5.55
2019-04-20T09:24:16.238Z,5.72
2019-04-20T09:26:39.407Z,5.05
2019-04-20T09:29:05.628Z,5.75
2019-04-20T09:31:43.697Z,5.22
2019-04-20T09:34:24.751Z,6.03
2019-04-20T09:37:22.349Z,5.30
2019-04-20T09:39:44.898Z,5.90
2019-04-20T09:42:28.296Z,6.47
2019-04-20T09:44:59.693Z,5.90
2019-04-20T09:47:33.758Z,5.70
2019-04-20T09:50:12.056Z,6.20
2019-04-20T09:52:45.729Z,5.37
2019-04-20T09:55:10.927Z,5.60
2019-04-20T09:57:43.642Z,5.50
2019-04-20T10:00:13.387Z,5.60
2019-04-20T10:02:29.846Z,5.87
2019-04-20T10:04:55.647Z,5.72
2019-04-20T10:07:26.136Z,5.90
2019-04-20T10:09:54.136Z,5.70
2019-04-20T10:12:22.087Z,7.10
2019-04-20T10:14:50.966Z,6.00
2019-04-20T10:17:20.253Z,5.55
2019-04-20T10:19:48.994Z,5.97
2019-04-20T10:22:18.446Z,6.00
2019-04-20T10:24:49.211Z,5.75
2019-04-20T10:27:18.923Z,5.75
2019-04-20T10:29:49.704Z,5.58
2019-04-20T10:32:19.732Z,5.70
2019-04-20T10:34:50.772Z,5.55
2019-04-20T10:37:27.249Z,5.58
2019-04-20T10:39:58.555Z,5.33
2019-04-20T10:42:28.113Z,5.22
2019-04-20T10:44:58.822Z,5.50
2019-04-20T10:47:27.294Z,5.50
2019-04-20T10:49:56.475Z,5.17
2019-04-20T10:52:25.682Z,4.65
2019-04-20T10:54:54.384Z,5.25
2019-04-20T10:57:23.648Z,5.45
2019-04-20T10:59:52.045Z,5.67
2019-04-20T11:02:19.837Z,4.83
2019-04-20T11:04:48.493Z,5.42
2019-04-20T11:07:16.770Z,4.90
2019-04-20T11:09:44.836Z,5.28
2019-04-20T11:12:12.653Z,5.33
2019-04-20T11:14:43.715Z,4.90
2019-04-20T11:17:10.079Z,5.30
2019-04-20T11:19:39.237Z,5.33
2019-04-20T11:22:08.374Z,4.50
2019-04-20T11:24:36.568Z,5.30
2019-04-20T11:27:04.543Z,4.67
2019-04-20T11:29:36.067Z,5.25
2019-04-20T11:32:05.265Z,5.33
2019-04-20T11:34:38.400Z,5.40
2019-04-20T11:37:03.390Z,5.08
2019-04-20T11:39:32.882Z,5.20
2019-04-20T11:42:01.561Z,5.08
2019-04-20T11:44:31.510Z,5.67
2019-04-20T11:47:00.627Z,4.90
2019-04-20T11:49:28.669Z,4.87
2019-04-20T11:51:57.327Z,5.00
2019-04-20T11:54:26.333Z,4.53
2019-04-20T11:56:55.490Z,5.22
2019-04-20T11:59:25.281Z,5.10
2019-04-20T12:02:04.662Z,5.53
2019-04-20T12:04:47.175Z,5.47
2019-04-20T12:07:08.874Z,5.10
2019-04-20T12:09:37.719Z,4.75
2019-04-20T12:12:17.879Z,4.85
2019-04-20T12:14:36.846Z,5.30
2019-04-20T12:17:05.892Z,4.97
2019-04-20T12:19:36.097Z,4.62
2019-04-20T12:22:03.654Z,4.90
2019-04-20T12:24:31.498Z,4.90
2019-04-20T12:27:00.661Z,4.67
2019-04-20T12:29:29.845Z,4.95
2019-04-20T12:32:01.853Z,4.58
2019-04-20T12:34:28.687Z,5.20
2019-04-20T12:36:58.285Z,4.90
2019-04-20T12:39:27.018Z,5.03
2019-04-20T12:42:08.135Z,4.62
2019-04-20T12:44:35.503Z,4.20
2019-04-20T12:47:03.752Z,4.97
2019-04-20T12:49:31.760Z,4.62
2019-04-20T12:52:04.403Z,4.87
2019-04-20T12:54:29.178Z,4.80
2019-04-20T12:56:58.463Z,4.85
2019-04-20T12:59:27.562Z,4.12
2019-04-20T13:01:55.786Z,4.62
2019-04-20T13:04:24.679Z,4.45
2019-04-20T13:06:55.165Z,4.75
2019-04-20T13:09:26.386Z,4.70
2019-04-20T13:12:05.361Z,4.67
2019-04-20T13:15:46.988Z,4.33
2019-04-20T13:18:17.386Z,4.00
2019-04-20T13:20:45.856Z,4.80
2019-04-20T13:23:14.949Z,4.20
2019-04-20T13:25:43.314Z,3.98
2019-04-20T13:28:11.178Z,4.22
2019-04-20T13:30:39.730Z,4.70
2019-04-20T13:33:07.994Z,5.30
2019-04-20T13:35:36.398Z,4.37
2019-04-20T13:38:04.619Z,4.78
2019-04-20T13:40:33.401Z,4.58
2019-04-20T13:43:01.694Z,4.58
2019-04-20T13:45:32.940Z,4.58
2019-04-20T13:48:01.158Z,4.60
2019-04-20T13:50:29.628Z,4.50
2019-04-20T13:52:58.597Z,4.40
2019-04-20T13:55:27.301Z,4.53
2019-04-20T13:58:02.132Z,4.53
2019-04-20T14:00:55.526Z,4.00
2019-04-20T14:03:24.917Z,3.90
2019-04-20T14:05:53.005Z,4.08
2019-04-20T14:08:25.604Z,4.22
2019-04-20T14:10:53.537Z,4.10
2019-04-20T14:13:23.799Z,5.47
2019-04-20T14:15:51.472Z,4.40
2019-04-20T14:18:19.472Z,4.97
2019-04-20T14:20:47.957Z,4.58
2019-04-20T14:23:17.015Z,4.30
2019-04-20T14:25:45.150Z,4.72
2019-04-20T14:28:13.288Z,4.25
2019-04-20T14:30:41.410Z,4.22
2019-04-20T14:33:10.566Z,4.08
2019-04-20T14:35:38.780Z,4.15
2019-04-20T14:38:07.905Z,4.20
2019-04-20T14:40:36.679Z,4.05
2019-04-20T14:43:05.112Z,4.33
2019-04-20T14:45:32.867Z,4.10
2019-04-20T14:48:01.679Z,4.50
2019-04-20T14:50:29.909Z,4.80
2019-04-20T14:52:57.749Z,4.80
2019-04-20T14:55:25.848Z,4.55
2019-04-20T14:57:55.591Z,4.30
2019-04-20T15:01:06.811Z,5.20
2019-04-20T15:03:38.354Z,4.72
2019-04-20T15:06:09.564Z,4.70
2019-04-20T15:08:38.728Z,4.70
2019-04-20T15:11:09.387Z,5.00
2019-04-20T15:13:38.647Z,4.80
2019-04-20T15:16:06.753Z,4.50
2019-04-20T15:18:48.193Z,4.60
2019-04-20T15:21:17.655Z,4.15
2019-04-20T15:23:45.707Z,4.40
2019-04-20T15:26:13.447Z,4.42
2019-04-20T15:28:42.124Z,4.10
2019-04-20T15:31:10.545Z,4.67
2019-04-20T15:33:39.091Z,4.47
2019-04-20T15:36:08.277Z,4.17
2019-04-20T15:38:36.290Z,4.53
2019-04-20T15:41:05.302Z,4.47
2019-04-20T15:43:35.211Z,4.20
2019-04-20T15:46:03.440Z,4.40
2019-04-20T15:48:32.187Z,4.08
2019-04-20T15:51:01.535Z,4.10
2019-04-20T15:53:29.627Z,4.10
2019-04-20T15:55:57.744Z,4.15
2019-04-20T15:58:26.197Z,4.40
2019-04-20T16:00:54.648Z,4.47
2019-04-20T16:03:30.545Z,4.78
2019-04-20T16:06:03.297Z,4.60
2019-04-20T16:08:38.905Z,4.93
2019-04-20T16:11:08.941Z,4.20
2019-04-20T16:13:41.948Z,4.40
2019-04-20T16:16:07.972Z,4.60
2019-04-20T16:18:37.045Z,4.70
2019-04-20T16:21:09.853Z,4.30
2019-04-20T16:23:50.581Z,4.13
2019-04-20T16:26:41.930Z,5.80
2019-04-20T16:29:11.515Z,4.90
2019-04-20T16:31:40.521Z,4.17
2019-04-20T16:34:09.541Z,4.30
2019-04-20T16:36:38.885Z,4.00
2019-04-20T16:39:09.233Z,3.87
2019-04-20T16:41:38.235Z,3.87
2019-04-20T16:44:07.186Z,4.47
2019-04-20T16:46:36.287Z,3.90
2019-04-20T16:49:05.211Z,4.30
2019-04-20T16:51:34.609Z,3.60
2019-04-20T16:54:03.727Z,3.97
2019-04-20T16:56:32.909Z,3.97
2019-04-20T16:59:06.096Z,3.70
2019-04-20T17:01:31.708Z,3.87
2019-04-20T17:04:06.754Z,3.93
2019-04-20T17:06:30.266Z,3.30
2019-04-20T17:08:58.786Z,3.43
2019-04-20T17:11:27.702Z,3.50
2019-04-20T17:13:58.281Z,3.23
2019-04-20T17:16:25.930Z,3.77
2019-04-20T17:18:55.260Z,3.80
2019-04-20T17:21:26.785Z,3.53
2019-04-20T17:23:53.249Z,4.57
2019-04-20T17:26:32.776Z,3.60
2019-04-20T17:29:08.272Z,4.17
2019-04-20T17:31:55.709Z,4.70
2019-04-20T17:34:41.129Z,4.40
2019-04-20T17:36:54.652Z,3.80
2019-04-20T17:39:31.045Z,4.50
2019-04-20T17:42:07.617Z,3.43
2019-04-20T17:44:35.686Z,3.57
2019-04-20T17:47:03.922Z,3.93
2019-04-20T17:49:35.557Z,4.03
2019-04-20T17:52:22.300Z,3.83
2019-04-20T17:54:53.443Z,3.43
2019-04-20T17:57:21.619Z,3.70
2019-04-20T17:59:59.637Z,4.47
2019-04-20T18:02:58.556Z,5.10
2019-04-20T18:05:39.114Z,4.80
2019-04-20T18:08:19.335Z,4.23
2019-04-20T18:10:35.447Z,4.33
2019-04-20T18:12:54.023Z,4.37
2019-04-20T18:15:35.882Z,3.50
2019-04-20T18:18:28.734Z,3.20
2019-04-20T18:20:56.891Z,3.03
2019-04-20T18:23:33.284Z,3.60
2019-04-20T18:26:19.787Z,3.80
2019-04-20T18:28:40.119Z,4.10
2019-04-20T18:31:17.604Z,5.53
2019-04-20T18:33:46.581Z,5.27
2019-04-20T18:36:24.597Z,5.07
2019-04-20T18:38:54.035Z,4.60
2019-04-20T18:41:23.130Z,3.93
2019-04-20T18:43:51.786Z,3.77
2019-04-20T18:46:34.660Z,3.90
2019-04-20T18:49:04.804Z,4.40
2019-04-20T18:51:15.489Z,4.87
2019-04-20T18:53:46.886Z,4.83
2019-04-20T18:56:23.849Z,5.27
2019-04-20T18:58:47.138Z,5.73
2019-04-20T19:01:28.148Z,5.83
2019-04-20T19:03:50.592Z,5.00
2019-04-20T19:06:21.027Z,5.90
2019-04-20T19:08:51.757Z,6.07
2019-04-20T19:11:25.748Z,5.63
2019-04-20T19:14:16.385Z,6.17
2019-04-20T19:16:52.833Z,5.70
2019-04-20T19:19:24.449Z,6.33
2019-04-20T19:21:52.064Z,5.37
2019-04-20T19:24:23.867Z,5.50
2019-04-20T19:26:55.644Z,5.70
2019-04-20T19:29:28.415Z,6.27
2019-04-20T19:32:07.622Z,5.63
2019-04-20T19:34:37.758Z,5.57
2019-04-20T19:37:00.862Z,6.20
2019-04-20T19:39:32.169Z,12.27
2019-04-20T19:41:55.505Z,9.67
2019-04-20T19:44:27.532Z,7.03
2019-04-20T19:47:11.023Z,5.30
2019-04-20T19:49:32.447Z,5.73
2019-04-20T19:52:29.643Z,5.00
2019-04-20T19:54:55.517Z,5.30
2019-04-20T19:57:25.386Z,5.90
2019-04-20T19:59:41.294Z,6.57
2019-04-20T20:02:07.618Z,6.30
2019-04-20T20:04:42.532Z,5.40
2019-04-20T20:07:17.097Z,6.03
2019-04-20T20:09:41.534Z,5.97
2019-04-20T20:12:11.858Z,5.60
2019-04-20T20:14:40.801Z,6.37
2019-04-20T20:17:30.085Z,6.47
2019-04-20T20:20:03.826Z,6.23
2019-04-20T20:22:17.459Z,5.83
2019-04-20T20:24:34.224Z,6.10
2019-04-20T20:27:06.145Z,6.93
2019-04-20T20:29:40.680Z,6.20
2019-04-20T20:32:15.517Z,6.40
2019-04-20T20:34:38.428Z,6.37
2019-04-20T20:37:08.464Z,5.70
2019-04-20T20:39:33.003Z,5.57
2019-04-20T20:42:10.879Z,6.37
2019-04-20T20:44:42.590Z,6.07
2019-04-20T20:47:23.231Z,5.80
2019-04-20T20:50:01.645Z,5.77
2019-04-20T20:52:17.350Z,5.70
2019-04-20T20:54:41.244Z,6.20
2019-04-20T20:57:05.420Z,6.50
2019-04-20T20:59:41.566Z,6.20
2019-04-20T21:02:06.381Z,6.07
2019-04-20T21:04:29.895Z,6.50
2019-04-20T21:06:58.378Z,6.13
2019-04-20T21:09:27.176Z,6.63
2019-04-20T21:12:01.830Z,7.33
2019-04-20T21:14:29.150Z,7.83
2019-04-20T21:17:03.005Z,10.20
2019-04-20T21:19:45.197Z,8.33
2019-04-20T21:22:02.790Z,7.07
2019-04-20T21:24:30.544Z,7.10
2019-04-20T21:27:01.586Z,6.40
2019-04-20T21:29:35.561Z,6.43
2019-04-20T21:32:05.086Z,6.43
2019-04-20T21:34:29.009Z,6.33
2019-04-20T21:37:03.509Z,5.90
2019-04-20T21:39:37.342Z,6.17
2019-04-20T21:42:04.668Z,5.70
2019-04-20T21:44:31.698Z,6.20
2019-04-20T21:46:56.730Z,5.80
2019-04-20T21:49:38.854Z,5.63
2019-04-20T21:52:03.599Z,5.70
2019-04-20T21:54:29.883Z,6.47
2019-04-20T21:57:03.416Z,5.53
2019-04-20T21:59:35.312Z,6.27
2019-04-20T22:02:03.484Z,7.60
2019-04-20T22:04:27.259Z,6.30
2019-04-20T22:06:56.187Z,7.20
2019-04-20T22:09:32.226Z,12.43
2019-04-20T22:11:56.039Z,11.60
2019-04-20T22:14:27.628Z,8.57
2019-04-20T22:16:56.774Z,9.10
2019-04-20T22:19:36.192Z,7.67
2019-04-20T22:22:02.724Z,6.73
2019-04-20T22:24:40.039Z,7.00
2019-04-20T22:27:04.628Z,6.83
2019-04-20T22:29:21.795Z,6.77
2019-04-20T22:31:56.721Z,6.80
2019-04-20T22:34:23.827Z,6.43
2019-04-20T22:36:50.443Z,5.93
2019-04-20T22:39:32.203Z,6.57
2019-04-20T22:42:01.190Z,7.70
2019-04-20T22:44:27.131Z,7.00
2019-04-20T22:46:54.297Z,6.90
2019-04-20T22:49:42.029Z,6.87
2019-04-20T22:52:00.626Z,6.30
2019-04-20T22:54:39.483Z,6.20
2019-04-20T22:57:03.339Z,6.30
2019-04-20T22:59:30.744Z,6.10
2019-04-20T23:01:56.769Z,6.37
2019-04-20T23:04:21.466Z,5.90
2019-04-20T23:06:50.630Z,6.53
2019-04-20T23:09:20.602Z,6.13
2019-04-20T23:11:53.776Z,5.60
2019-04-20T23:14:20.378Z,8.57
2019-04-20T23:16:52.059Z,6.57
2019-04-20T23:19:30.002Z,6.63
2019-04-20T23:21:56.853Z,6.40
2019-04-20T23:24:18.836Z,6.73
2019-04-20T23:26:48.641Z,7.47
2019-04-20T23:29:17.521Z,6.50
2019-04-20T23:31:51.183Z,6.33
2019-04-20T23:34:19.994Z,6.00
2019-04-20T23:36:48.525Z,7.23
2019-04-20T23:39:14.863Z,6.80
2019-04-20T23:41:52.477Z,7.47
2019-04-20T23:44:19.168Z,7.37
2019-04-20T23:47:15.532Z,9.40
2019-04-20T23:50:03.395Z,10.80
2019-04-20T23:52:38.918Z,12.73
2019-04-20T23:54:51.352Z,11.90
2019-04-20T23:57:15.665Z,10.50
2019-04-20T23:59:46.265Z,10.17
